Time;durP1;ratioP1;P1;durP2;ratioP2;P2;SDS_P1;SDS_P2;PMS_P1;PMS_P2;Temp;Humidity;BMP_temperature;BMP_pressure;BME280_temperature;BME280_humidity;BME280_pressure;Samples;Min_cycle;Max_cycle;Signal;HPM_P1;HPM_P2
2024/01/21 00:01:23;;;;;;;12.88;8.88;;;;;;;-145.63;50.76;39020.34;5025087;28;20025;-66
2024/01/21 00:03:49;;;;;;;11.80;9.02;;;;;;;-145.63;50.59;39051.63;5020368;28;20033;-68
2024/01/21 00:06:15;;;;;;;13.27;9.07;;;;;;;-145.63;50.95;39077.06;5026885;28;20074;-65
2024/01/21 00:08:40;;;;;;;12.82;8.80;;;;;;;-145.63;51.31;39016.44;5028795;28;20041;-65
2024/01/21 00:11:07;;;;;;;13.35;9.20;;;;;;;-145.63;49.97;39006.66;5019759;28;20037;-67
2024/01/21 00:13:33;;;;;;;11.50;9.07;;;;;;;-145.63;51.31;39006.66;5021617;28;20033;-66
2024/01/21 00:15:59;;;;;;;11.43;8.93;;;;;;;-145.63;49.92;39032.06;5025970;28;20363;-64
2024/01/21 00:18:25;;;;;;;13.10;8.98;;;;;;;-145.63;50.13;39004.69;5027460;28;20033;-65
2024/01/21 00:20:50;;;;;;;13.82;9.63;;;;;;;-145.63;50.80;39028.16;5028833;28;20471;-64
2024/01/21 00:23:16;;;;;;;13.98;8.85;;;;;;;-145.63;50.43;39043.81;5017440;28;20026;-66
2024/01/21 00:25:42;;;;;;;14.07;10.02;;;;;;;-145.63;50.48;39024.25;5015476;28;20109;-65
2024/01/21 00:28:08;;;;;;;12.13;8.93;;;;;;;-145.63;50.80;39037.94;5019618;28;20062;-64
2024/01/21 00:30:34;;;;;;;12.80;9.68;;;;;;;-145.63;49.72;39010.56;5026898;28;20471;-68
2024/01/21 00:33:00;;;;;;;15.27;10.10;;;;;;;-145.63;50.26;39016.44;5028295;28;20048;-65
2024/01/21 00:35:26;;;;;;;12.38;9.13;;;;;;;-145.63;50.22;39008.59;5017382;28;20049;-66
2024/01/21 00:37:51;;;;;;;15.02;10.00;;;;;;;-145.63;50.56;39010.56;5036644;28;20511;-65
2024/01/21 00:40:17;;;;;;;14.48;9.70;;;;;;;-145.63;50.11;39100.50;5026419;28;20038;-64
2024/01/21 00:42:43;;;;;;;14.90;9.98;;;;;;;-145.63;50.55;38887.34;5024111;28;20029;-66
2024/01/21 00:45:09;;;;;;;13.82;9.80;;;;;;;-145.63;50.55;39030.13;5020052;28;20478;-66
2024/01/21 00:47:35;;;;;;;14.07;9.73;;;;;;;-145.63;50.47;39034.03;5016815;28;20084;-65
2024/01/21 00:50:03;;;;;;;14.45;9.48;;;;;;;-145.63;51.08;39018.38;5016455;28;20038;-67
2024/01/21 00:52:29;;;;;;;14.85;9.80;;;;;;;-145.63;50.76;38991.00;5020360;28;20359;-65
2024/01/21 00:54:54;;;;;;;14.40;9.88;;;;;;;-145.63;51.47;39008.59;5026709;28;20037;-65
2024/01/21 00:57:20;;;;;;;13.27;10.05;;;;;;;-145.63;51.03;39016.44;5013057;28;20127;-66
2024/01/21 00:59:46;;;;;;;14.60;9.63;;;;;;;-145.63;51.01;38989.03;5018377;28;20445;-66
2024/01/21 01:02:11;;;;;;;14.02;9.68;;;;;;;-145.63;50.83;38998.81;5018046;28;20026;-65
2024/01/21 01:04:38;;;;;;;13.20;9.98;;;;;;;-145.63;50.74;39002.72;5027665;28;20026;-65
2024/01/21 01:07:04;;;;;;;13.60;9.52;;;;;;;-145.63;50.72;38992.97;5030786;28;20037;-66
2024/01/21 01:09:29;;;;;;;13.35;9.93;;;;;;;-145.63;50.47;38496.28;5032698;28;20080;-65
2024/01/21 01:11:55;;;;;;;13.52;9.68;;;;;;;-145.63;49.63;38989.03;5011023;28;20026;-68
2024/01/21 01:14:21;;;;;;;15.57;9.68;;;;;;;-145.63;50.76;38973.41;5020298;28;20029;-66
2024/01/21 01:16:47;;;;;;;13.40;9.80;;;;;;;-145.63;51.23;39006.66;5021928;28;20360;-64
2024/01/21 01:19:12;;;;;;;12.45;9.70;;;;;;;-145.63;50.90;38994.91;5019390;28;20026;-67
2024/01/21 01:21:38;;;;;;;13.32;9.48;;;;;;;-145.63;50.72;38971.44;5013847;28;20092;-64
2024/01/21 01:24:04;;;;;;;16.65;10.73;;;;;;;-145.63;51.01;38991.00;5013512;28;20050;-64
2024/01/21 01:26:30;;;;;;;14.15;10.10;;;;;;;-145.63;50.89;38994.91;5016921;28;20120;-66
2024/01/21 01:28:56;;;;;;;13.45;10.70;;;;;;;-145.63;51.15;38955.81;5026482;28;20128;-64
2024/01/21 01:31:21;;;;;;;16.90;11.32;;;;;;;-145.63;50.99;38973.41;5027518;28;21470;-64
2024/01/21 01:33:47;;;;;;;13.77;10.98;;;;;;;-145.63;50.55;38969.50;5018797;28;20038;-64
2024/01/21 01:36:13;;;;;;;15.15;10.13;;;;;;;-145.63;50.99;38951.88;5021714;28;20042;-65
2024/01/21 01:38:39;;;;;;;15.18;10.85;;;;;;;-145.63;50.68;38998.81;5026408;28;20036;-65
2024/01/21 01:41:04;;;;;;;17.00;10.63;;;;;;;-145.63;50.32;38953.84;5024439;28;20529;-65
2024/01/21 01:43:30;;;;;;;15.90;10.77;;;;;;;-145.63;51.30;38987.09;5023518;28;20107;-64
2024/01/21 01:45:59;;;;;;;15.98;11.32;;;;;;;-145.63;51.43;38953.84;5025538;28;20099;-64
2024/01/21 01:48:25;;;;;;;15.32;10.57;;;;;;;-145.63;51.06;38934.28;5018393;28;20113;-64
2024/01/21 01:50:51;;;;;;;15.02;11.27;;;;;;;-145.63;51.38;38928.44;5030006;28;20097;-64
2024/01/21 01:53:17;;;;;;;15.43;10.63;;;;;;;-145.63;50.73;38942.13;5023473;28;20469;-66
2024/01/21 01:55:44;;;;;;;13.35;10.55;;;;;;;-145.63;50.78;38942.13;5015818;28;20030;-65
2024/01/21 01:58:11;;;;;;;15.40;9.90;;;;;;;-145.63;50.87;38955.81;5024377;28;20029;-64
2024/01/21 02:00:37;;;;;;;13.80;10.35;;;;;;;-145.63;50.39;38934.28;5016764;28;20030;-64
2024/01/21 02:03:03;;;;;;;16.45;10.80;;;;;;;-145.63;50.46;38932.34;5030666;28;20034;-65
2024/01/21 02:05:29;;;;;;;14.80;10.57;;;;;;;-145.63;50.63;38961.66;5018795;28;20029;-67
2024/01/21 02:07:55;;;;;;;13.30;9.63;;;;;;;-145.63;50.01;38930.38;5024495;28;20387;-65
2024/01/21 02:10:21;;;;;;;15.70;10.07;;;;;;;-145.63;49.68;38947.97;5029678;28;20041;-66
2024/01/21 02:12:46;;;;;;;12.73;9.70;;;;;;;-145.63;49.55;38926.47;5016646;28;20045;-65
2024/01/21 02:15:12;;;;;;;15.80;10.07;;;;;;;-145.63;50.20;38940.16;5027032;28;20022;-67
2024/01/21 02:17:39;;;;;;;14.13;10.52;;;;;;;-145.63;50.48;38940.16;5030101;28;20079;-67
2024/01/21 02:20:07;;;;;;;14.05;10.88;;;;;;;-145.63;49.98;38947.97;5021961;28;20160;-64
2024/01/21 02:22:37;;;;;;;13.13;9.55;;;;;;;-145.63;50.11;38897.13;5022402;28;20083;-65
2024/01/21 02:25:02;;;;;;;14.05;9.68;;;;;;;-145.63;50.59;38922.56;5031709;28;20050;-66
2024/01/21 02:27:28;;;;;;;13.93;10.02;;;;;;;-145.63;50.20;38910.81;5016228;28;20022;-66
2024/01/21 02:29:54;;;;;;;14.30;9.77;;;;;;;-145.63;50.56;38926.47;5015833;28;20376;-65
2024/01/21 02:32:20;;;;;;;11.88;9.50;;;;;;;-145.63;50.71;38938.19;5020651;28;20026;-64
2024/01/21 02:34:45;;;;;;;14.93;9.88;;;;;;;-145.63;50.08;38938.19;5026529;28;20444;-63
2024/01/21 02:37:11;;;;;;;11.88;8.88;;;;;;;-145.63;50.90;38922.56;5039533;28;20044;-65
2024/01/21 02:39:36;;;;;;;12.95;9.60;;;;;;;-145.63;50.63;38926.47;5022817;28;20045;-66
2024/01/21 02:42:02;;;;;;;13.07;9.05;;;;;;;-145.63;50.70;38926.47;5034040;28;20531;-65
2024/01/21 02:44:28;;;;;;;12.77;8.88;;;;;;;-145.63;50.31;38914.72;5026840;28;20026;-65
2024/01/21 02:46:54;;;;;;;12.18;8.95;;;;;;;-145.63;50.49;38924.50;5027501;28;20112;-65
2024/01/21 02:49:21;;;;;;;13.20;9.10;;;;;;;-145.63;50.56;38918.66;5024401;28;20080;-64
2024/01/21 02:51:46;;;;;;;12.55;8.55;;;;;;;-145.63;50.02;38904.97;5016085;28;20057;-64
2024/01/21 02:54:12;;;;;;;13.25;8.50;;;;;;;-145.63;49.93;38922.56;5017701;28;20026;-66
2024/01/21 02:56:38;;;;;;;12.07;8.65;;;;;;;-145.63;49.89;39004.69;5023311;28;20104;-64
2024/01/21 02:59:03;;;;;;;13.63;8.75;;;;;;;-145.63;49.51;38914.72;5029289;28;20072;-65
2024/01/21 03:01:29;;;;;;;15.43;9.65;;;;;;;-145.63;50.58;38906.91;5030291;28;20032;-65
2024/01/21 03:03:55;;;;;;;12.55;9.50;;;;;;;-145.63;49.65;38895.19;5015817;28;20076;-65
2024/01/21 03:06:21;;;;;;;15.32;9.25;;;;;;;-145.63;50.76;38912.78;5033131;28;20052;-64
2024/01/21 03:08:46;;;;;;;13.38;9.95;;;;;;;-145.63;50.53;38893.22;5016340;28;20057;-64
2024/01/21 03:11:12;;;;;;;13.95;10.32;;;;;;;-145.63;49.74;38904.97;5026907;28;20384;-65
2024/01/21 03:13:38;;;;;;;12.48;9.23;;;;;;;-145.63;50.51;38930.38;5018914;28;20033;-65
2024/01/21 03:16:03;;;;;;;13.38;9.10;;;;;;;-145.63;50.11;38918.66;5023468;28;20029;-63
2024/01/21 03:18:29;;;;;;;14.50;10.45;;;;;;;-145.63;49.61;38924.50;5034421;28;20040;-65
2024/01/21 03:20:54;;;;;;;12.77;9.32;;;;;;;-145.63;49.98;38926.47;5021922;28;20485;-65
2024/01/21 03:23:20;;;;;;;13.77;8.95;;;;;;;-145.63;50.54;38885.41;5027979;28;20037;-65
2024/01/21 03:25:46;;;;;;;13.10;9.27;;;;;;;-145.63;50.41;38910.81;5021931;28;20037;-64
2024/01/21 03:28:12;;;;;;;14.82;9.15;;;;;;;-145.63;49.53;38922.56;5029291;28;20048;-64
2024/01/21 03:30:39;;;;;;;16.52;8.80;;;;;;;-145.63;49.84;38912.78;5027994;28;20044;-65
2024/01/21 03:33:04;;;;;;;14.63;9.55;;;;;;;-145.63;49.25;38875.63;5014850;28;20053;-66
2024/01/21 03:35:30;;;;;;;13.10;8.82;;;;;;;-145.63;49.80;38875.63;5027638;28;20045;-65
2024/01/21 03:37:56;;;;;;;16.10;10.25;;;;;;;-145.63;49.89;38922.56;5031772;28;20096;-65
2024/01/21 03:40:21;;;;;;;14.85;9.15;;;;;;;-145.63;49.48;38920.59;5031089;28;20131;-66
2024/01/21 03:42:47;;;;;;;15.23;9.43;;;;;;;-145.63;49.72;38897.13;5033329;28;20033;-64
2024/01/21 03:45:13;;;;;;;14.93;8.80;;;;;;;-145.63;49.02;38906.91;5012646;28;20033;-65
2024/01/21 03:47:39;;;;;;;13.05;9.13;;;;;;;-145.63;49.76;38908.88;5018328;28;20040;-65
2024/01/21 03:50:05;;;;;;;16.45;9.82;;;;;;;-145.63;48.92;38926.47;5021701;28;20033;-64
2024/01/21 03:52:31;;;;;;;12.82;8.90;;;;;;;-145.63;48.46;38895.19;5025442;28;20117;-66
2024/01/21 03:54:57;;;;;;;17.55;9.85;;;;;;;-145.63;48.71;38906.91;5021185;28;20030;-65
2024/01/21 03:57:23;;;;;;;15.07;8.48;;;;;;;-145.63;49.23;38904.97;5034007;28;20036;-65
2024/01/21 03:59:49;;;;;;;13.40;8.02;;;;;;;-145.63;48.70;38914.72;5024988;28;20034;-65
2024/01/21 04:02:14;;;;;;;12.27;8.93;;;;;;;-145.63;48.69;38949.94;5029732;28;20118;-66
2024/01/21 04:04:40;;;;;;;13.57;7.72;;;;;;;-145.63;48.91;38934.28;5015832;28;20188;-65
2024/01/21 04:07:06;;;;;;;10.73;7.55;;;;;;;-145.63;47.67;38897.13;5016528;28;20041;-63
2024/01/21 04:09:31;;;;;;;8.65;6.88;;;;;;;-145.63;47.94;38889.31;5018796;28;20530;-64
2024/01/21 04:11:57;;;;;;;10.82;6.72;;;;;;;-145.63;49.26;38848.25;5020366;28;20033;-64
2024/01/21 04:14:22;;;;;;;10.13;6.63;;;;;;;-145.63;48.54;38920.59;5025133;28;20025;-64
2024/01/21 04:16:48;;;;;;;10.75;7.10;;;;;;;-145.63;48.37;38906.91;5024772;28;20108;-64
2024/01/21 04:19:17;;;;;;;10.13;6.90;;;;;;;-145.63;49.16;38895.19;5031074;28;20088;-65
2024/01/21 04:21:43;;;;;;;10.18;7.15;;;;;;;-145.63;49.21;38863.88;5026551;28;20029;-66
2024/01/21 04:24:08;;;;;;;8.77;6.28;;;;;;;-145.63;49.15;38891.28;5030046;28;20045;-65
2024/01/21 04:26:34;;;;;;;10.88;6.50;;;;;;;-145.63;48.11;38885.41;5015375;28;20059;-65
2024/01/21 04:29:00;;;;;;;9.07;6.32;;;;;;;-145.63;48.19;38887.34;5023667;28;20032;-65
2024/01/21 04:31:25;;;;;;;10.73;6.57;;;;;;;-145.63;48.68;38891.28;5028366;28;20100;-65
2024/01/21 04:33:51;;;;;;;9.23;6.07;;;;;;;-145.63;48.84;38899.09;5025208;28;20448;-65
2024/01/21 04:36:18;;;;;;;8.98;5.68;;;;;;;-145.63;48.89;38906.91;5031818;28;20053;-65
2024/01/21 04:38:45;;;;;;;9.32;5.90;;;;;;;-145.63;48.87;38858.03;5015436;28;20090;-65
2024/01/21 04:41:12;;;;;;;9.45;6.35;;;;;;;-145.63;48.65;38891.28;5022181;28;20037;-64
2024/01/21 04:43:38;;;;;;;9.98;6.72;;;;;;;-145.63;48.86;38887.34;5016935;28;20072;-65
2024/01/21 04:46:03;;;;;;;8.55;5.80;;;;;;;-145.63;48.61;38861.94;5022306;28;20391;-65
2024/01/21 04:48:29;;;;;;;9.80;6.60;;;;;;;-145.63;49.23;38920.59;5033724;28;20087;-65
2024/01/21 04:50:55;;;;;;;10.35;6.50;;;;;;;-145.63;48.51;38568.63;5028773;28;20041;-65
2024/01/21 04:53:20;;;;;;;9.48;6.57;;;;;;;-145.63;48.94;38889.31;5028082;28;20124;-66
2024/01/21 04:55:46;;;;;;;7.38;6.30;;;;;;;-145.63;48.95;38877.56;5023658;28;20088;-65
2024/01/21 04:58:12;;;;;;;9.05;6.68;;;;;;;-145.63;49.31;38875.63;5023542;28;20037;-64
2024/01/21 05:00:37;;;;;;;9.85;6.45;;;;;;;-145.63;48.43;38871.72;5015057;28;20492;-65
2024/01/21 05:03:03;;;;;;;10.27;6.10;;;;;;;-145.63;49.12;38854.13;5020219;28;20437;-65
2024/01/21 05:05:29;;;;;;;9.18;6.15;;;;;;;-145.63;49.34;38871.72;5018403;28;20022;-65
2024/01/21 05:07:54;;;;;;;9.77;6.28;;;;;;;-145.63;48.97;38885.41;5024930;28;20033;-64
2024/01/21 05:10:20;;;;;;;10.00;7.13;;;;;;;-145.63;47.53;38865.84;5031417;28;20037;-66
2024/01/21 05:12:45;;;;;;;11.88;7.07;;;;;;;-145.63;48.57;38883.44;5024867;28;20475;-66
2024/01/21 05:15:11;;;;;;;11.90;6.68;;;;;;;-145.63;48.46;38873.66;5032123;28;20030;-66
2024/01/21 05:17:37;;;;;;;9.38;6.32;;;;;;;-145.63;49.14;38867.81;5026101;28;20037;-67
2024/01/21 05:20:03;;;;;;;8.98;6.28;;;;;;;-145.63;48.64;38856.06;5022368;28;20080;-66
2024/01/21 05:22:29;;;;;;;12.07;6.85;;;;;;;-145.63;48.42;38951.88;5023083;28;20040;-64
2024/01/21 05:24:55;;;;;;;8.90;6.43;;;;;;;-145.63;49.67;38854.13;5017079;28;20033;-66
2024/01/21 05:27:21;;;;;;;13.85;8.80;;;;;;;-145.63;49.21;38842.38;5015609;28;20030;-65
2024/01/21 05:29:47;;;;;;;11.52;8.20;;;;;;;-145.63;48.56;38863.88;5032143;28;20033;-65
2024/01/21 05:32:13;;;;;;;10.65;6.70;;;;;;;-145.63;49.31;38834.56;5028747;28;20088;-65
2024/01/21 05:34:39;;;;;;;9.57;6.90;;;;;;;-145.63;48.64;38871.72;5033753;28;20046;-68
2024/01/21 05:37:05;;;;;;;9.52;6.68;;;;;;;-145.63;48.78;38863.88;5030112;28;20501;-67
2024/01/21 05:39:31;;;;;;;10.43;6.72;;;;;;;-145.63;49.01;38852.16;5023780;28;20081;-66
2024/01/21 05:42:05;;;;;;;9.27;6.65;;;;;;;-145.63;48.18;38816.97;5018130;28;20061;-65
2024/01/21 05:44:31;;;;;;;13.27;8.07;;;;;;;-145.63;48.66;38867.81;5024418;28;20038;-64
2024/01/21 05:46:57;;;;;;;10.48;6.90;;;;;;;-145.63;47.57;38852.16;5024355;28;20040;-66
2024/01/21 05:49:24;;;;;;;9.25;6.50;;;;;;;-145.63;48.23;38869.75;5018507;28;20033;-64
2024/01/21 05:51:50;;;;;;;11.63;7.28;;;;;;;-145.63;48.29;38856.06;5018873;28;20081;-65
2024/01/21 05:54:16;;;;;;;11.48;7.18;;;;;;;-145.63;47.16;38828.69;5034626;28;20021;-66
2024/01/21 05:56:44;;;;;;;12.40;6.82;;;;;;;-145.63;48.22;38885.41;5026295;28;20083;-66
2024/01/21 05:59:12;;;;;;;8.73;6.78;;;;;;;-145.63;48.16;38813.03;5023218;28;20061;-66
2024/01/21 06:01:39;;;;;;;12.02;7.82;;;;;;;-145.63;48.14;38795.44;5027160;28;20064;-64
2024/01/21 06:04:07;;;;;;;12.00;6.95;;;;;;;-145.63;47.96;38822.81;5016847;28;20038;-67
2024/01/21 06:06:33;;;;;;;12.75;7.10;;;;;;;-145.63;48.73;38793.50;5027719;28;20018;-65
2024/01/21 06:08:58;;;;;;;11.88;7.22;;;;;;;-145.63;48.12;38779.81;5023335;28;20474;-65
2024/01/21 06:11:26;;;;;;;12.88;8.18;;;;;;;-145.63;47.88;38797.41;5015566;28;20026;-65
2024/01/21 06:13:54;;;;;;;10.80;6.90;;;;;;;-145.63;48.39;38793.50;5014684;28;20507;-66
2024/01/21 06:16:19;;;;;;;13.00;7.70;;;;;;;-145.63;48.07;38777.84;5023025;28;20033;-65
2024/01/21 06:18:45;;;;;;;10.95;7.65;;;;;;;-145.63;48.14;38813.03;5025940;28;20042;-65
2024/01/21 06:21:11;;;;;;;12.70;8.13;;;;;;;-145.63;48.43;38834.56;5028028;28;20041;-64
2024/01/21 06:23:37;;;;;;;11.73;7.28;;;;;;;-145.63;49.15;38809.13;5026969;28;20410;-66
2024/01/21 06:26:14;;;;;;;12.63;7.78;;;;;;;-145.63;48.01;38873.66;5026135;28;20037;-66
2024/01/21 06:28:40;;;;;;;10.95;7.20;;;;;;;-145.63;47.66;38779.81;5019652;28;20099;-66
2024/01/21 06:31:06;;;;;;;13.85;7.80;;;;;;;-145.63;48.73;38799.34;5016724;28;20087;-67
2024/01/21 06:33:32;;;;;;;12.77;8.25;;;;;;;-145.63;47.34;38746.56;5015786;28;20038;-65
2024/01/21 06:35:57;;;;;;;14.23;7.50;;;;;;;-145.63;48.57;38803.28;5023645;28;20079;-65
2024/01/21 06:38:23;;;;;;;11.02;7.30;;;;;;;-145.63;48.71;38818.91;5028038;28;20046;-65
2024/01/21 06:40:49;;;;;;;11.93;7.78;;;;;;;-145.63;47.89;38785.66;5026493;28;20045;-66
2024/01/21 06:43:20;;;;;;;10.82;7.30;;;;;;;-145.63;47.37;38801.31;5021382;28;20076;-66
2024/01/21 06:45:45;;;;;;;12.70;8.27;;;;;;;-145.63;48.94;38717.22;5016057;28;20093;-67
2024/01/21 06:48:11;;;;;;;13.02;8.13;;;;;;;-145.63;49.35;38789.59;5024976;28;20038;-68
2024/01/21 06:50:37;;;;;;;18.30;9.15;;;;;;;-145.63;48.33;38783.72;5026762;28;20341;-67
2024/01/21 06:53:03;;;;;;;11.85;8.00;;;;;;;-145.63;47.95;38758.28;5028772;28;20540;-66
2024/01/21 06:55:28;;;;;;;13.75;8.80;;;;;;;-145.63;48.37;38789.59;5030242;28;20470;-67
2024/01/21 06:57:54;;;;;;;13.07;8.43;;;;;;;-145.63;49.64;38793.50;5026817;28;20045;-65
2024/01/21 07:00:20;;;;;;;13.80;8.43;;;;;;;-145.63;47.61;38795.44;5022782;28;20030;-65
2024/01/21 07:02:45;;;;;;;11.15;7.97;;;;;;;-145.63;48.83;38791.53;5026342;28;20029;-65
2024/01/21 07:05:11;;;;;;;13.48;8.60;;;;;;;-145.63;47.92;38797.41;5025312;28;20463;-64
2024/01/21 07:07:36;;;;;;;13.48;8.65;;;;;;;-145.63;49.13;38824.78;5022884;28;20021;-66
2024/01/21 07:10:02;;;;;;;14.13;9.63;;;;;;;-145.63;48.77;38791.53;5026106;28;20110;-66
2024/01/21 07:12:29;;;;;;;13.63;8.98;;;;;;;-145.63;48.32;38789.59;5027321;28;20077;-67
2024/01/21 07:14:55;;;;;;;12.65;8.70;;;;;;;-145.63;48.73;38793.50;5029786;28;20032;-68
2024/01/21 07:17:21;;;;;;;14.82;10.00;;;;;;;-145.63;48.64;38811.09;5030411;28;20037;-67
2024/01/21 07:19:47;;;;;;;17.05;10.15;;;;;;;-145.63;48.15;38771.97;5029386;28;20017;-67
2024/01/21 07:22:12;;;;;;;18.20;10.63;;;;;;;-145.63;47.84;38793.50;5023061;28;20703;-65
2024/01/21 07:24:38;;;;;;;17.40;10.60;;;;;;;-145.63;48.90;38787.63;5026967;28;20026;-66
2024/01/21 07:27:05;;;;;;;17.40;10.43;;;;;;;-145.63;48.29;38828.69;5029636;28;20034;-67
2024/01/21 07:29:31;;;;;;;17.17;11.05;;;;;;;-145.63;48.10;38770.03;5013355;28;20367;-66
2024/01/21 07:31:57;;;;;;;18.08;10.48;;;;;;;-145.63;47.60;38793.50;5027581;28;20033;-67
2024/01/21 07:34:23;;;;;;;16.67;11.18;;;;;;;-145.63;48.39;38805.22;5025505;28;20026;-64
2024/01/21 07:36:48;;;;;;;20.58;11.48;;;;;;;-145.63;48.57;38791.53;5031440;28;20029;-64
2024/01/21 07:39:14;;;;;;;17.40;10.82;;;;;;;-145.63;48.85;38803.28;5032897;28;20433;-65
2024/01/21 07:41:41;;;;;;;19.30;11.43;;;;;;;-145.63;48.16;38797.41;5031363;28;20032;-66
2024/01/21 07:44:06;;;;;;;17.48;10.52;;;;;;;-145.63;48.86;38801.31;5020565;28;20088;-67
2024/01/21 07:46:32;;;;;;;16.30;10.13;;;;;;;-145.63;47.41;38830.66;5033322;28;20033;-68
2024/01/21 07:48:58;;;;;;;17.08;9.95;;;;;;;-145.63;47.54;38779.81;5026374;28;20041;-65
2024/01/21 07:51:23;;;;;;;20.05;10.88;;;;;;;-145.63;47.83;38809.13;5028875;28;20026;-65
2024/01/21 07:53:49;;;;;;;15.90;10.05;;;;;;;-145.63;47.33;38848.25;5023306;28;20026;-64
2024/01/21 07:56:14;;;;;;;15.57;9.40;;;;;;;-145.63;47.87;38820.88;5023194;28;20021;-67
2024/01/21 07:58:43;;;;;;;19.88;10.00;;;;;;;-145.63;48.23;38801.31;5030344;28;20091;-67
2024/01/21 08:01:12;;;;;;;19.27;11.63;;;;;;;-145.63;47.72;38813.03;5023749;28;20034;-64
2024/01/21 08:03:38;;;;;;;20.70;10.50;;;;;;;-145.63;47.99;38805.22;5030692;28;20141;-67
2024/01/21 08:06:07;;;;;;;16.73;10.40;;;;;;;-145.63;47.26;38768.06;5029616;28;20037;-64
2024/01/21 08:08:33;;;;;;;22.70;10.75;;;;;;;-145.63;46.85;38793.50;5029032;28;20068;-64
2024/01/21 08:10:59;;;;;;;19.77;9.98;;;;;;;-145.63;45.94;38711.38;5026751;28;20436;-64
2024/01/21 08:13:24;;;;;;;19.63;9.55;;;;;;;-145.63;45.74;38771.97;5027112;28;20382;-65
2024/01/21 08:15:50;;;;;;;14.82;8.23;;;;;;;-145.63;45.33;38756.34;5013727;28;20475;-65
2024/01/21 08:18:19;;;;;;;14.90;8.23;;;;;;;-145.63;45.03;38771.97;5015729;28;20042;-66
2024/01/21 08:20:45;;;;;;;13.65;7.32;;;;;;;-145.63;44.69;38797.41;5022666;28;20054;-65
2024/01/21 08:23:11;;;;;;;14.95;7.53;;;;;;;-145.63;44.08;38856.06;5023299;28;20048;-65
2024/01/21 08:25:36;;;;;;;11.07;7.05;;;;;;;-145.63;44.95;38816.97;5020098;28;20033;-66
2024/01/21 08:28:02;;;;;;;15.52;8.07;;;;;;;-145.63;45.01;38852.16;5019724;28;20037;-66
2024/01/21 08:30:28;;;;;;;14.77;7.10;;;;;;;-145.63;45.06;38867.81;5024173;28;20492;-65
2024/01/21 08:32:54;;;;;;;15.95;7.88;;;;;;;-145.63;44.67;38807.19;5023703;28;20038;-67
2024/01/21 08:35:20;;;;;;;12.75;7.07;;;;;;;-145.63;44.04;38846.28;5014867;28;20046;-65
2024/01/21 08:37:47;;;;;;;12.63;6.68;;;;;;;-145.63;44.73;38830.66;5027994;28;20386;-67
2024/01/21 08:40:13;;;;;;;13.98;7.78;;;;;;;-145.63;44.77;38914.72;5020404;28;20485;-66
2024/01/21 08:42:39;;;;;;;13.32;7.03;;;;;;;-145.63;44.06;38854.13;5029600;28;20037;-69
2024/01/21 08:45:06;;;;;;;15.05;7.43;;;;;;;-145.63;43.70;38869.75;5017647;28;20033;-66
2024/01/21 08:47:33;;;;;;;15.15;7.45;;;;;;;-145.63;43.71;38859.97;5024526;28;20057;-67
2024/01/21 08:49:59;;;;;;;14.35;7.13;;;;;;;-145.63;43.34;38836.50;5029664;28;20022;-68
2024/01/21 08:52:25;;;;;;;11.95;6.63;;;;;;;-145.63;43.60;38859.97;5023072;28;20038;-66
2024/01/21 08:54:50;;;;;;;11.48;6.95;;;;;;;-145.63;43.56;38863.88;5020956;28;20083;-64
2024/01/21 08:57:16;;;;;;;9.90;6.10;;;;;;;-145.63;42.87;38938.19;5012205;28;20045;-66
2024/01/21 08:59:42;;;;;;;9.57;5.82;;;;;;;-145.63;42.69;38859.97;5029771;28;20037;-65
2024/01/21 09:02:08;;;;;;;11.57;6.80;;;;;;;-145.63;43.31;38799.34;5016870;28;20033;-67
2024/01/21 09:04:33;;;;;;;13.77;5.75;;;;;;;-145.63;41.80;38783.72;5028051;28;20048;-66
2024/01/21 09:06:59;;;;;;;7.75;5.30;;;;;;;-145.63;40.64;38801.31;5024105;28;20038;-68
2024/01/21 09:09:25;;;;;;;11.23;5.25;;;;;;;-145.63;41.48;38859.97;5011478;28;20034;-67
2024/01/21 09:11:51;;;;;;;9.57;4.82;;;;;;;-145.63;40.93;38867.81;5015984;28;20019;-66
2024/01/21 09:14:18;;;;;;;7.35;5.30;;;;;;;-145.63;40.57;38903.00;5022429;28;20030;-68
2024/01/21 09:16:44;;;;;;;9.27;5.40;;;;;;;-145.63;40.55;38906.91;5028106;28;20497;-66
2024/01/21 09:19:11;;;;;;;9.52;5.47;;;;;;;-145.63;40.68;38926.47;5029110;28;20029;-67
2024/01/21 09:21:37;;;;;;;9.27;5.85;;;;;;;-145.63;40.15;38893.22;5011776;28;20333;-66
2024/01/21 09:24:04;;;;;;;9.20;5.40;;;;;;;-145.63;41.56;38910.81;5017549;28;20029;-67
2024/01/21 09:26:31;;;;;;;13.82;5.70;;;;;;;-145.63;40.47;38899.09;5025470;28;20045;-66
2024/01/21 09:28:56;;;;;;;13.95;6.72;;;;;;;-145.63;40.17;38859.97;5027032;28;20029;-69
2024/01/21 09:31:22;;;;;;;11.75;6.57;;;;;;;-145.63;40.51;38879.53;5027208;28;20395;-69
2024/01/21 09:33:48;;;;;;;12.27;7.05;;;;;;;-145.63;40.02;38906.91;5021234;28;20037;-68
2024/01/21 09:36:15;;;;;;;13.35;6.60;;;;;;;-145.63;39.07;38906.91;5017762;28;20049;-68
2024/01/21 09:38:41;;;;;;;15.18;6.82;;;;;;;-145.63;40.43;38879.53;5011775;28;20033;-69
2024/01/21 09:41:28;;;;;;;14.43;7.32;;;;;;;-145.63;40.47;38955.81;5019395;28;20045;-68
2024/01/21 09:43:54;;;;;;;14.65;6.68;;;;;;;-145.63;40.28;38910.81;5023902;28;20036;-68
2024/01/21 09:46:19;;;;;;;10.23;6.13;;;;;;;-145.63;41.09;38891.28;5018511;28;20124;-68
2024/01/21 09:48:46;;;;;;;11.77;6.63;;;;;;;-145.63;40.40;38889.31;5013152;28;20459;-70
2024/01/21 09:51:12;;;;;;;9.55;6.07;;;;;;;-145.63;40.46;38891.28;5013132;28;20099;-66
2024/01/21 09:53:38;;;;;;;10.55;5.63;;;;;;;-145.63;41.78;38895.19;5013622;28;20108;-68
2024/01/21 09:56:07;;;;;;;11.95;6.20;;;;;;;-145.63;41.21;38893.22;5022885;28;20101;-67
2024/01/21 09:59:01;;;;;;;9.63;5.80;;;;;;;-145.63;41.30;38912.78;5021316;28;20036;-66
2024/01/21 10:01:27;;;;;;;10.15;5.82;;;;;;;-145.63;40.68;38932.34;5024347;28;20459;-68
2024/01/21 10:03:52;;;;;;;11.05;6.07;;;;;;;-145.63;40.85;38889.31;5016732;28;20044;-66
2024/01/21 10:06:18;;;;;;;10.60;6.35;;;;;;;-145.63;41.08;38895.19;5031898;28;20048;-66
2024/01/21 10:08:44;;;;;;;9.60;5.90;;;;;;;-145.63;41.15;38912.78;5027713;28;20034;-66
2024/01/21 10:11:10;;;;;;;11.07;6.15;;;;;;;-145.63;39.92;38906.91;5022231;28;20025;-69
2024/01/21 10:13:38;;;;;;;9.98;6.10;;;;;;;-145.63;40.41;38891.28;5031775;28;20379;-66
2024/01/21 10:16:07;;;;;;;12.77;6.10;;;;;;;-145.63;40.36;38865.84;5016566;28;20030;-69
2024/01/21 10:18:34;;;;;;;11.50;6.60;;;;;;;-145.63;40.81;38885.41;5015694;28;20030;-68
2024/01/21 10:21:03;;;;;;;11.07;6.15;;;;;;;-145.63;40.62;38881.50;5017578;28;20026;-68
2024/01/21 10:23:29;;;;;;;11.15;6.35;;;;;;;-145.63;40.50;38885.41;5018441;28;20076;-67
2024/01/21 10:25:55;;;;;;;11.50;5.90;;;;;;;-145.63;40.67;38457.16;5027486;28;20033;-67
2024/01/21 10:28:22;;;;;;;11.00;6.07;;;;;;;-145.63;41.13;38914.72;5035104;28;20029;-70
2024/01/21 10:30:48;;;;;;;21.73;11.85;;;;;;;-145.63;40.53;38891.28;5034725;28;20029;-69
2024/01/21 10:33:14;;;;;;;14.32;7.50;;;;;;;-145.63;41.35;38906.91;5034369;28;20368;-70
2024/01/21 10:35:40;;;;;;;10.07;5.93;;;;;;;-145.63;41.00;38932.34;5034707;28;20164;-69
2024/01/21 10:38:11;;;;;;;11.32;6.28;;;;;;;-145.63;41.14;38885.41;5015009;28;20038;-67
2024/01/21 10:40:43;;;;;;;8.20;5.53;;;;;;;-145.63;41.07;38901.03;5018285;28;20029;-70
2024/01/21 10:43:13;;;;;;;10.43;5.70;;;;;;;-145.63;40.60;38906.91;5034348;28;20036;-67
2024/01/21 10:45:42;;;;;;;9.68;5.70;;;;;;;-145.63;40.06;38910.81;5014782;28;20643;-69
2024/01/21 10:48:08;;;;;;;11.63;5.85;;;;;;;-145.63;42.22;38918.66;5030336;28;20261;-68
2024/01/21 10:50:35;;;;;;;12.35;6.75;;;;;;;-145.63;41.49;38899.09;5034072;28;20031;-69
2024/01/21 10:53:02;;;;;;;11.98;6.30;;;;;;;-145.63;40.76;38922.56;5033937;28;20026;-68
2024/01/21 10:55:28;;;;;;;11.45;6.13;;;;;;;-145.63;41.97;38897.13;5034401;28;20221;-68
2024/01/21 10:57:54;;;;;;;11.20;6.53;;;;;;;-145.63;41.81;38879.53;5034102;28;20113;-68
2024/01/21 11:00:20;;;;;;;12.18;7.18;;;;;;;-145.63;41.65;38930.38;5034619;28;20116;-71
2024/01/21 11:03:24;;;;;;;12.38;7.80;;;;;;;-145.63;41.78;38918.66;5033324;28;20040;-67
2024/01/21 11:05:57;;;;;;;13.93;7.57;;;;;;;-145.63;42.15;38904.97;5037691;28;20037;-67